Terminal Aerodrome Forecast
Issued by NWS Portland, ME

Home | Current Version | Previous Version | Text Only | Print | Product List | Glossary On
Versions: 1 2 3 4 5 6 7 8 9 10 11 12 13 14 15 16 17 18 19 20 21 22
000
FTUS41 KGYX 220229 AAA
TAFPWM
TAF AMD
KPWM 220229Z 2202/2224 00000KT P6SM SCT120 BKN200
     FM220900 00000KT P6SM OVC040
     FM221300 02004KT P6SM OVC015
     FM221500 04004KT P6SM OVC007
      TEMPO 2219/2223 5SM -SN BR
     FM222300 04007KT 3SM -SN OVC003=

USA.gov is the U.S. government's official web portal to all federal, state and local government web resources and services.